sensor_id;sensor_type;location;lat;lon;timestamp;P1;durP1;ratioP1;P2;durP2;ratioP2
71312;SDS011;59104;44.738;20.612;2022-07-29T00:02:08;4.05;;;3.05;;
71312;SDS011;59104;44.738;20.612;2022-07-29T00:04:34;3.58;;;2.42;;
71312;SDS011;59104;44.738;20.612;2022-07-29T00:07:01;4.03;;;2.65;;
71312;SDS011;59104;44.738;20.612;2022-07-29T00:09:26;3.33;;;2.55;;
71312;SDS011;59104;44.738;20.612;2022-07-29T00:11:53;3.65;;;2.50;;
71312;SDS011;59104;44.738;20.612;2022-07-29T00:14:21;4.40;;;2.90;;
71312;SDS011;59104;44.738;20.612;2022-07-29T00:16:47;5.40;;;3.53;;
71312;SDS011;59104;44.738;20.612;2022-07-29T00:19:13;3.45;;;2.92;;
71312;SDS011;59104;44.738;20.612;2022-07-29T00:21:39;4.70;;;3.30;;
71312;SDS011;59104;44.738;20.612;2022-07-29T00:24:04;4.38;;;3.10;;
71312;SDS011;59104;44.738;20.612;2022-07-29T00:26:30;3.60;;;2.58;;
71312;SDS011;59104;44.738;20.612;2022-07-29T00:28:58;4.03;;;3.00;;
71312;SDS011;59104;44.738;20.612;2022-07-29T00:31:24;5.72;;;3.13;;
71312;SDS011;59104;44.738;20.612;2022-07-29T00:33:51;3.75;;;3.30;;
71312;SDS011;59104;44.738;20.612;2022-07-29T00:36:17;6.05;;;3.70;;
71312;SDS011;59104;44.738;20.612;2022-07-29T00:38:42;4.43;;;3.47;;
71312;SDS011;59104;44.738;20.612;2022-07-29T00:41:10;5.07;;;3.67;;
71312;SDS011;59104;44.738;20.612;2022-07-29T00:43:36;4.85;;;3.60;;
71312;SDS011;59104;44.738;20.612;2022-07-29T00:46:02;3.92;;;2.88;;
71312;SDS011;59104;44.738;20.612;2022-07-29T00:48:28;4.35;;;3.40;;
71312;SDS011;59104;44.738;20.612;2022-07-29T00:50:54;5.50;;;3.80;;
71312;SDS011;59104;44.738;20.612;2022-07-29T00:53:22;5.35;;;3.55;;
71312;SDS011;59104;44.738;20.612;2022-07-29T00:55:49;3.88;;;3.38;;
71312;SDS011;59104;44.738;20.612;2022-07-29T00:58:15;3.85;;;3.10;;
71312;SDS011;59104;44.738;20.612;2022-07-29T01:00:42;4.55;;;2.78;;
71312;SDS011;59104;44.738;20.612;2022-07-29T01:03:08;4.20;;;2.85;;
71312;SDS011;59104;44.738;20.612;2022-07-29T01:05:34;3.90;;;2.92;;
71312;SDS011;59104;44.738;20.612;2022-07-29T01:08:00;4.07;;;3.05;;
71312;SDS011;59104;44.738;20.612;2022-07-29T01:10:27;3.65;;;2.60;;
71312;SDS011;59104;44.738;20.612;2022-07-29T01:12:54;3.95;;;2.80;;
71312;SDS011;59104;44.738;20.612;2022-07-29T01:15:22;3.45;;;2.60;;
71312;SDS011;59104;44.738;20.612;2022-07-29T01:31:03;3.42;;;2.60;;
71312;SDS011;59104;44.738;20.612;2022-07-29T01:33:31;3.00;;;2.58;;
71312;SDS011;59104;44.738;20.612;2022-07-29T01:36:25;3.80;;;2.95;;
71312;SDS011;59104;44.738;20.612;2022-07-29T01:39:37;3.15;;;2.38;;
71312;SDS011;59104;44.738;20.612;2022-07-29T01:45:04;3.25;;;2.20;;
71312;SDS011;59104;44.738;20.612;2022-07-29T01:47:40;3.42;;;2.33;;
71312;SDS011;59104;44.738;20.612;2022-07-29T01:50:12;3.53;;;2.47;;
71312;SDS011;59104;44.738;20.612;2022-07-29T01:53:01;3.10;;;2.40;;
71312;SDS011;59104;44.738;20.612;2022-07-29T01:55:32;3.65;;;2.50;;
71312;SDS011;59104;44.738;20.612;2022-07-29T01:58:03;3.75;;;2.58;;
71312;SDS011;59104;44.738;20.612;2022-07-29T02:00:30;3.38;;;2.80;;
71312;SDS011;59104;44.738;20.612;2022-07-29T02:03:04;3.55;;;2.67;;
71312;SDS011;59104;44.738;20.612;2022-07-29T02:05:34;3.35;;;2.60;;
71312;SDS011;59104;44.738;20.612;2022-07-29T02:08:02;3.13;;;2.50;;
71312;SDS011;59104;44.738;20.612;2022-07-29T02:10:30;3.47;;;2.70;;
71312;SDS011;59104;44.738;20.612;2022-07-29T02:12:57;3.78;;;2.47;;
71312;SDS011;59104;44.738;20.612;2022-07-29T02:15:25;3.92;;;2.88;;
71312;SDS011;59104;44.738;20.612;2022-07-29T02:17:58;5.38;;;3.28;;
71312;SDS011;59104;44.738;20.612;2022-07-29T02:20:27;4.45;;;3.13;;
71312;SDS011;59104;44.738;20.612;2022-07-29T02:22:54;4.07;;;3.38;;
71312;SDS011;59104;44.738;20.612;2022-07-29T02:25:23;5.32;;;3.80;;
71312;SDS011;59104;44.738;20.612;2022-07-29T02:27:50;4.45;;;3.33;;
71312;SDS011;59104;44.738;20.612;2022-07-29T02:30:17;5.22;;;3.80;;
71312;SDS011;59104;44.738;20.612;2022-07-29T02:32:44;4.28;;;3.42;;
71312;SDS011;59104;44.738;20.612;2022-07-29T02:35:12;5.28;;;4.18;;
71312;SDS011;59104;44.738;20.612;2022-07-29T02:37:40;5.10;;;4.05;;
71312;SDS011;59104;44.738;20.612;2022-07-29T02:40:08;5.22;;;3.40;;
71312;SDS011;59104;44.738;20.612;2022-07-29T02:42:36;6.40;;;3.45;;
71312;SDS011;59104;44.738;20.612;2022-07-29T02:45:04;5.20;;;3.30;;
71312;SDS011;59104;44.738;20.612;2022-07-29T02:47:41;4.80;;;3.47;;
71312;SDS011;59104;44.738;20.612;2022-07-29T02:50:12;5.97;;;4.72;;
71312;SDS011;59104;44.738;20.612;2022-07-29T02:52:43;7.60;;;4.93;;
71312;SDS011;59104;44.738;20.612;2022-07-29T02:55:19;5.82;;;4.25;;
71312;SDS011;59104;44.738;20.612;2022-07-29T02:58:01;5.75;;;4.25;;
71312;SDS011;59104;44.738;20.612;2022-07-29T03:00:48;4.80;;;3.55;;
71312;SDS011;59104;44.738;20.612;2022-07-29T03:03:17;5.20;;;3.88;;
71312;SDS011;59104;44.738;20.612;2022-07-29T03:05:44;4.65;;;3.78;;
71312;SDS011;59104;44.738;20.612;2022-07-29T03:08:11;4.70;;;3.67;;
71312;SDS011;59104;44.738;20.612;2022-07-29T03:10:39;4.53;;;3.72;;
71312;SDS011;59104;44.738;20.612;2022-07-29T03:13:08;5.57;;;3.75;;
71312;SDS011;59104;44.738;20.612;2022-07-29T03:15:35;4.97;;;3.47;;
71312;SDS011;59104;44.738;20.612;2022-07-29T03:18:01;3.63;;;2.90;;
71312;SDS011;59104;44.738;20.612;2022-07-29T03:20:27;3.80;;;2.97;;
71312;SDS011;59104;44.738;20.612;2022-07-29T03:22:53;3.45;;;3.03;;
71312;SDS011;59104;44.738;20.612;2022-07-29T03:25:19;3.30;;;2.75;;
71312;SDS011;59104;44.738;20.612;2022-07-29T03:27:47;3.72;;;3.08;;
71312;SDS011;59104;44.738;20.612;2022-07-29T03:30:14;2.97;;;2.47;;
71312;SDS011;59104;44.738;20.612;2022-07-29T03:32:40;4.75;;;3.10;;
71312;SDS011;59104;44.738;20.612;2022-07-29T03:35:07;3.60;;;3.15;;
71312;SDS011;59104;44.738;20.612;2022-07-29T03:37:32;3.72;;;2.92;;
71312;SDS011;59104;44.738;20.612;2022-07-29T03:39:59;5.18;;;3.40;;
71312;SDS011;59104;44.738;20.612;2022-07-29T03:42:28;5.07;;;3.58;;
71312;SDS011;59104;44.738;20.612;2022-07-29T03:44:58;4.45;;;3.67;;
71312;SDS011;59104;44.738;20.612;2022-07-29T03:47:27;5.45;;;4.15;;
71312;SDS011;59104;44.738;20.612;2022-07-29T03:49:59;5.97;;;4.38;;
71312;SDS011;59104;44.738;20.612;2022-07-29T03:52:27;4.30;;;3.50;;
71312;SDS011;59104;44.738;20.612;2022-07-29T03:54:53;5.78;;;4.05;;
71312;SDS011;59104;44.738;20.612;2022-07-29T03:57:20;4.97;;;3.72;;
71312;SDS011;59104;44.738;20.612;2022-07-29T03:59:48;3.55;;;3.20;;
71312;SDS011;59104;44.738;20.612;2022-07-29T04:02:16;5.25;;;3.60;;
71312;SDS011;59104;44.738;20.612;2022-07-29T04:04:42;5.40;;;3.60;;
71312;SDS011;59104;44.738;20.612;2022-07-29T04:07:11;5.55;;;3.38;;
71312;SDS011;59104;44.738;20.612;2022-07-29T04:09:37;4.07;;;3.30;;
71312;SDS011;59104;44.738;20.612;2022-07-29T04:12:03;3.97;;;3.28;;
71312;SDS011;59104;44.738;20.612;2022-07-29T04:14:30;3.88;;;3.08;;
71312;SDS011;59104;44.738;20.612;2022-07-29T04:16:56;3.63;;;3.20;;
71312;SDS011;59104;44.738;20.612;2022-07-29T04:19:22;3.97;;;3.15;;
71312;SDS011;59104;44.738;20.612;2022-07-29T04:21:48;4.35;;;2.90;;
71312;SDS011;59104;44.738;20.612;2022-07-29T04:24:14;4.65;;;3.25;;
71312;SDS011;59104;44.738;20.612;2022-07-29T04:26:39;4.47;;;3.13;;
71312;SDS011;59104;44.738;20.612;2022-07-29T04:29:05;5.10;;;3.60;;
71312;SDS011;59104;44.738;20.612;2022-07-29T04:31:30;4.38;;;3.20;;
71312;SDS011;59104;44.738;20.612;2022-07-29T04:33:56;4.20;;;3.08;;
71312;SDS011;59104;44.738;20.612;2022-07-29T04:36:21;5.85;;;3.70;;
71312;SDS011;59104;44.738;20.612;2022-07-29T04:38:47;4.78;;;3.88;;
71312;SDS011;59104;44.738;20.612;2022-07-29T04:41:13;4.45;;;3.28;;
71312;SDS011;59104;44.738;20.612;2022-07-29T04:43:38;4.95;;;3.75;;
71312;SDS011;59104;44.738;20.612;2022-07-29T04:46:05;5.93;;;4.20;;
71312;SDS011;59104;44.738;20.612;2022-07-29T04:48:32;3.90;;;3.25;;
71312;SDS011;59104;44.738;20.612;2022-07-29T04:50:57;6.85;;;3.58;;
71312;SDS011;59104;44.738;20.612;2022-07-29T04:53:23;4.78;;;3.75;;
71312;SDS011;59104;44.738;20.612;2022-07-29T04:55:49;5.28;;;3.33;;
71312;SDS011;59104;44.738;20.612;2022-07-29T04:58:15;5.35;;;3.92;;
71312;SDS011;59104;44.738;20.612;2022-07-29T05:00:40;5.15;;;3.67;;
71312;SDS011;59104;44.738;20.612;2022-07-29T05:03:06;4.65;;;3.60;;
71312;SDS011;59104;44.738;20.612;2022-07-29T05:05:31;5.25;;;4.00;;
71312;SDS011;59104;44.738;20.612;2022-07-29T05:07:57;5.18;;;4.15;;
71312;SDS011;59104;44.738;20.612;2022-07-29T05:10:23;6.15;;;4.40;;
71312;SDS011;59104;44.738;20.612;2022-07-29T05:12:49;5.45;;;3.92;;
71312;SDS011;59104;44.738;20.612;2022-07-29T05:15:14;5.15;;;3.53;;
71312;SDS011;59104;44.738;20.612;2022-07-29T05:17:40;4.93;;;3.75;;
71312;SDS011;59104;44.738;20.612;2022-07-29T05:20:05;6.25;;;4.80;;
71312;SDS011;59104;44.738;20.612;2022-07-29T05:22:32;7.13;;;4.82;;
71312;SDS011;59104;44.738;20.612;2022-07-29T05:24:57;7.03;;;4.63;;
71312;SDS011;59104;44.738;20.612;2022-07-29T05:27:23;6.55;;;4.28;;
71312;SDS011;59104;44.738;20.612;2022-07-29T05:29:49;6.18;;;4.57;;
71312;SDS011;59104;44.738;20.612;2022-07-29T05:32:14;8.05;;;4.53;;
71312;SDS011;59104;44.738;20.612;2022-07-29T05:34:40;4.90;;;3.65;;
71312;SDS011;59104;44.738;20.612;2022-07-29T05:37:07;6.80;;;4.00;;
71312;SDS011;59104;44.738;20.612;2022-07-29T05:39:32;5.82;;;4.05;;
71312;SDS011;59104;44.738;20.612;2022-07-29T05:41:58;5.32;;;3.97;;
71312;SDS011;59104;44.738;20.612;2022-07-29T05:44:23;5.18;;;3.97;;
71312;SDS011;59104;44.738;20.612;2022-07-29T05:46:49;4.45;;;3.65;;
71312;SDS011;59104;44.738;20.612;2022-07-29T05:49:15;4.22;;;2.92;;
71312;SDS011;59104;44.738;20.612;2022-07-29T05:51:41;5.00;;;3.30;;
71312;SDS011;59104;44.738;20.612;2022-07-29T05:54:06;4.70;;;3.20;;
71312;SDS011;59104;44.738;20.612;2022-07-29T05:56:32;4.95;;;3.35;;
71312;SDS011;59104;44.738;20.612;2022-07-29T05:58:57;4.50;;;3.30;;
71312;SDS011;59104;44.738;20.612;2022-07-29T06:01:23;4.22;;;3.08;;
71312;SDS011;59104;44.738;20.612;2022-07-29T06:03:49;4.80;;;3.42;;
71312;SDS011;59104;44.738;20.612;2022-07-29T06:06:15;3.75;;;2.75;;
71312;SDS011;59104;44.738;20.612;2022-07-29T06:08:40;3.45;;;2.75;;
71312;SDS011;59104;44.738;20.612;2022-07-29T06:11:06;3.75;;;2.85;;
71312;SDS011;59104;44.738;20.612;2022-07-29T06:13:33;4.82;;;2.70;;
71312;SDS011;59104;44.738;20.612;2022-07-29T06:15:59;5.13;;;2.70;;
71312;SDS011;59104;44.738;20.612;2022-07-29T06:18:24;3.80;;;3.03;;
71312;SDS011;59104;44.738;20.612;2022-07-29T06:20:51;4.20;;;3.10;;
71312;SDS011;59104;44.738;20.612;2022-07-29T06:23:18;4.28;;;2.80;;
71312;SDS011;59104;44.738;20.612;2022-07-29T06:25:44;4.32;;;3.40;;
71312;SDS011;59104;44.738;20.612;2022-07-29T06:28:10;3.70;;;2.90;;
71312;SDS011;59104;44.738;20.612;2022-07-29T06:30:36;3.75;;;2.88;;
71312;SDS011;59104;44.738;20.612;2022-07-29T06:33:02;4.18;;;2.75;;
71312;SDS011;59104;44.738;20.612;2022-07-29T06:35:29;4.13;;;3.35;;
71312;SDS011;59104;44.738;20.612;2022-07-29T06:37:54;4.22;;;3.15;;
71312;SDS011;59104;44.738;20.612;2022-07-29T06:40:20;3.88;;;3.05;;
71312;SDS011;59104;44.738;20.612;2022-07-29T06:43:04;3.50;;;3.13;;
71312;SDS011;59104;44.738;20.612;2022-07-29T06:45:30;3.42;;;2.90;;
71312;SDS011;59104;44.738;20.612;2022-07-29T06:47:59;3.58;;;2.63;;
71312;SDS011;59104;44.738;20.612;2022-07-29T06:50:24;3.65;;;3.17;;
71312;SDS011;59104;44.738;20.612;2022-07-29T06:52:50;4.22;;;3.10;;
71312;SDS011;59104;44.738;20.612;2022-07-29T06:55:16;4.25;;;2.92;;
71312;SDS011;59104;44.738;20.612;2022-07-29T06:57:44;5.30;;;3.70;;
71312;SDS011;59104;44.738;20.612;2022-07-29T07:00:11;3.40;;;2.80;;
71312;SDS011;59104;44.738;20.612;2022-07-29T07:02:38;3.53;;;2.80;;
71312;SDS011;59104;44.738;20.612;2022-07-29T07:05:03;4.43;;;3.20;;
71312;SDS011;59104;44.738;20.612;2022-07-29T07:07:31;4.00;;;3.05;;
71312;SDS011;59104;44.738;20.612;2022-07-29T07:09:56;3.28;;;2.97;;
71312;SDS011;59104;44.738;20.612;2022-07-29T07:12:22;4.28;;;3.03;;
71312;SDS011;59104;44.738;20.612;2022-07-29T07:14:48;4.38;;;3.05;;
71312;SDS011;59104;44.738;20.612;2022-07-29T07:17:14;3.95;;;3.20;;
71312;SDS011;59104;44.738;20.612;2022-07-29T07:19:39;3.70;;;3.15;;
71312;SDS011;59104;44.738;20.612;2022-07-29T07:22:05;4.10;;;3.22;;
71312;SDS011;59104;44.738;20.612;2022-07-29T07:24:30;4.50;;;3.88;;
71312;SDS011;59104;44.738;20.612;2022-07-29T07:26:56;4.97;;;3.65;;
71312;SDS011;59104;44.738;20.612;2022-07-29T07:29:22;3.47;;;3.17;;
71312;SDS011;59104;44.738;20.612;2022-07-29T07:31:48;4.18;;;3.17;;
71312;SDS011;59104;44.738;20.612;2022-07-29T07:34:14;4.20;;;3.50;;
71312;SDS011;59104;44.738;20.612;2022-07-29T07:36:39;4.60;;;3.92;;
71312;SDS011;59104;44.738;20.612;2022-07-29T07:39:05;7.03;;;3.58;;
71312;SDS011;59104;44.738;20.612;2022-07-29T07:41:31;4.65;;;3.72;;
71312;SDS011;59104;44.738;20.612;2022-07-29T07:43:56;4.03;;;3.30;;
71312;SDS011;59104;44.738;20.612;2022-07-29T07:46:22;4.03;;;3.10;;
71312;SDS011;59104;44.738;20.612;2022-07-29T07:48:47;4.43;;;3.33;;
71312;SDS011;59104;44.738;20.612;2022-07-29T07:51:13;4.03;;;3.58;;
71312;SDS011;59104;44.738;20.612;2022-07-29T07:53:39;4.15;;;3.15;;
71312;SDS011;59104;44.738;20.612;2022-07-29T07:56:05;5.07;;;3.28;;
71312;SDS011;59104;44.738;20.612;2022-07-29T07:58:31;3.50;;;3.03;;
71312;SDS011;59104;44.738;20.612;2022-07-29T08:00:58;5.00;;;3.63;;
71312;SDS011;59104;44.738;20.612;2022-07-29T08:03:23;3.88;;;3.28;;
71312;SDS011;59104;44.738;20.612;2022-07-29T08:05:49;4.43;;;2.70;;
71312;SDS011;59104;44.738;20.612;2022-07-29T08:08:16;4.63;;;3.50;;
71312;SDS011;59104;44.738;20.612;2022-07-29T08:10:42;6.20;;;3.03;;
71312;SDS011;59104;44.738;20.612;2022-07-29T08:13:17;3.58;;;3.10;;
71312;SDS011;59104;44.738;20.612;2022-07-29T08:15:44;4.50;;;3.35;;
71312;SDS011;59104;44.738;20.612;2022-07-29T08:18:14;3.88;;;3.40;;
71312;SDS011;59104;44.738;20.612;2022-07-29T08:20:39;4.93;;;3.40;;
71312;SDS011;59104;44.738;20.612;2022-07-29T08:23:06;4.88;;;3.78;;
71312;SDS011;59104;44.738;20.612;2022-07-29T08:25:36;5.75;;;4.65;;
71312;SDS011;59104;44.738;20.612;2022-07-29T08:28:04;4.53;;;3.80;;
71312;SDS011;59104;44.738;20.612;2022-07-29T08:30:30;5.03;;;3.72;;
71312;SDS011;59104;44.738;20.612;2022-07-29T08:32:58;5.43;;;4.10;;
71312;SDS011;59104;44.738;20.612;2022-07-29T08:35:24;5.68;;;4.13;;
71312;SDS011;59104;44.738;20.612;2022-07-29T08:37:50;5.10;;;3.80;;
71312;SDS011;59104;44.738;20.612;2022-07-29T08:40:16;6.00;;;4.65;;
71312;SDS011;59104;44.738;20.612;2022-07-29T08:42:42;6.88;;;4.65;;
71312;SDS011;59104;44.738;20.612;2022-07-29T08:45:08;7.28;;;4.43;;
71312;SDS011;59104;44.738;20.612;2022-07-29T08:47:34;9.18;;;5.07;;
71312;SDS011;59104;44.738;20.612;2022-07-29T08:50:05;7.35;;;4.80;;
71312;SDS011;59104;44.738;20.612;2022-07-29T08:52:33;8.77;;;4.85;;
71312;SDS011;59104;44.738;20.612;2022-07-29T08:55:01;4.93;;;3.90;;
71312;SDS011;59104;44.738;20.612;2022-07-29T08:57:27;6.80;;;4.43;;
71312;SDS011;59104;44.738;20.612;2022-07-29T08:59:54;6.45;;;4.32;;
71312;SDS011;59104;44.738;20.612;2022-07-29T09:02:22;5.63;;;4.60;;
71312;SDS011;59104;44.738;20.612;2022-07-29T09:04:51;5.38;;;4.47;;
71312;SDS011;59104;44.738;20.612;2022-07-29T09:07:17;5.68;;;4.30;;
71312;SDS011;59104;44.738;20.612;2022-07-29T09:09:44;8.23;;;5.40;;
71312;SDS011;59104;44.738;20.612;2022-07-29T09:12:10;6.00;;;4.57;;
71312;SDS011;59104;44.738;20.612;2022-07-29T09:14:39;5.60;;;5.00;;
71312;SDS011;59104;44.738;20.612;2022-07-29T09:17:05;5.95;;;4.80;;
71312;SDS011;59104;44.738;20.612;2022-07-29T09:19:33;6.28;;;5.10;;
71312;SDS011;59104;44.738;20.612;2022-07-29T09:22:04;8.35;;;5.65;;
71312;SDS011;59104;44.738;20.612;2022-07-29T09:26:59;6.97;;;5.15;;
71312;SDS011;59104;44.738;20.612;2022-07-29T09:29:26;7.03;;;5.43;;
71312;SDS011;59104;44.738;20.612;2022-07-29T09:31:53;7.03;;;5.13;;
71312;SDS011;59104;44.738;20.612;2022-07-29T09:34:26;6.28;;;4.70;;
71312;SDS011;59104;44.738;20.612;2022-07-29T09:36:54;6.57;;;5.15;;
71312;SDS011;59104;44.738;20.612;2022-07-29T09:39:30;8.68;;;5.30;;
71312;SDS011;59104;44.738;20.612;2022-07-29T09:41:59;8.57;;;5.53;;
71312;SDS011;59104;44.738;20.612;2022-07-29T09:44:26;7.30;;;5.18;;
71312;SDS011;59104;44.738;20.612;2022-07-29T09:47:06;7.20;;;5.78;;
71312;SDS011;59104;44.738;20.612;2022-07-29T09:49:33;9.48;;;5.28;;
71312;SDS011;59104;44.738;20.612;2022-07-29T09:54:30;7.13;;;5.20;;
71312;SDS011;59104;44.738;20.612;2022-07-29T09:57:05;8.88;;;6.45;;
71312;SDS011;59104;44.738;20.612;2022-07-29T09:59:34;8.63;;;5.55;;
71312;SDS011;59104;44.738;20.612;2022-07-29T10:01:59;9.90;;;5.53;;
71312;SDS011;59104;44.738;20.612;2022-07-29T10:04:38;11.93;;;6.15;;
71312;SDS011;59104;44.738;20.612;2022-07-29T10:07:07;8.30;;;5.72;;
71312;SDS011;59104;44.738;20.612;2022-07-29T10:09:34;10.05;;;5.10;;
71312;SDS011;59104;44.738;20.612;2022-07-29T10:12:10;9.05;;;5.65;;
71312;SDS011;59104;44.738;20.612;2022-07-29T10:14:40;7.53;;;5.55;;
71312;SDS011;59104;44.738;20.612;2022-07-29T10:17:07;8.60;;;6.03;;
71312;SDS011;59104;44.738;20.612;2022-07-29T10:19:34;6.60;;;5.57;;
71312;SDS011;59104;44.738;20.612;2022-07-29T10:22:03;10.32;;;6.57;;
71312;SDS011;59104;44.738;20.612;2022-07-29T10:24:32;7.68;;;5.68;;
71312;SDS011;59104;44.738;20.612;2022-07-29T10:26:59;11.45;;;6.93;;
71312;SDS011;59104;44.738;20.612;2022-07-29T10:29:27;11.73;;;6.32;;
71312;SDS011;59104;44.738;20.612;2022-07-29T10:40:46;8.65;;;5.50;;
71312;SDS011;59104;44.738;20.612;2022-07-29T10:43:41;6.13;;;5.30;;
71312;SDS011;59104;44.738;20.612;2022-07-29T10:46:09;8.50;;;5.53;;
71312;SDS011;59104;44.738;20.612;2022-07-29T10:54:18;9.50;;;5.78;;
71312;SDS011;59104;44.738;20.612;2022-07-29T10:57:21;8.32;;;5.43;;
71312;SDS011;59104;44.738;20.612;2022-07-29T11:00:25;6.13;;;4.97;;
71312;SDS011;59104;44.738;20.612;2022-07-29T11:05:08;8.00;;;5.53;;
71312;SDS011;59104;44.738;20.612;2022-07-29T11:07:39;6.35;;;5.10;;
71312;SDS011;59104;44.738;20.612;2022-07-29T11:10:25;7.75;;;4.60;;
71312;SDS011;59104;44.738;20.612;2022-07-29T11:12:51;7.28;;;5.15;;
71312;SDS011;59104;44.738;20.612;2022-07-29T11:15:18;7.65;;;6.03;;
71312;SDS011;59104;44.738;20.612;2022-07-29T11:20:41;6.40;;;4.78;;
71312;SDS011;59104;44.738;20.612;2022-07-29T11:25:44;6.13;;;4.87;;
71312;SDS011;59104;44.738;20.612;2022-07-29T11:28:16;5.72;;;4.88;;
71312;SDS011;59104;44.738;20.612;2022-07-29T11:30:55;5.95;;;4.45;;
71312;SDS011;59104;44.738;20.612;2022-07-29T11:33:30;7.43;;;5.18;;
71312;SDS011;59104;44.738;20.612;2022-07-29T11:36:14;6.30;;;4.35;;
71312;SDS011;59104;44.738;20.612;2022-07-29T11:38:40;6.53;;;4.45;;
71312;SDS011;59104;44.738;20.612;2022-07-29T11:41:25;6.43;;;4.35;;
71312;SDS011;59104;44.738;20.612;2022-07-29T11:46:43;5.90;;;3.78;;
71312;SDS011;59104;44.738;20.612;2022-07-29T11:49:11;6.57;;;4.53;;
71312;SDS011;59104;44.738;20.612;2022-07-29T11:51:38;6.55;;;5.22;;
71312;SDS011;59104;44.738;20.612;2022-07-29T11:54:04;7.28;;;5.97;;
71312;SDS011;59104;44.738;20.612;2022-07-29T11:56:31;11.23;;;6.60;;
71312;SDS011;59104;44.738;20.612;2022-07-29T11:59:02;6.72;;;4.93;;
71312;SDS011;59104;44.738;20.612;2022-07-29T12:01:30;7.63;;;6.82;;
71312;SDS011;59104;44.738;20.612;2022-07-29T12:04:06;6.55;;;5.45;;
71312;SDS011;59104;44.738;20.612;2022-07-29T12:06:33;7.13;;;5.90;;
71312;SDS011;59104;44.738;20.612;2022-07-29T12:09:00;6.60;;;5.80;;
71312;SDS011;59104;44.738;20.612;2022-07-29T12:11:26;6.63;;;4.57;;
71312;SDS011;59104;44.738;20.612;2022-07-29T12:13:52;7.38;;;5.10;;
71312;SDS011;59104;44.738;20.612;2022-07-29T12:16:21;6.95;;;4.75;;
71312;SDS011;59104;44.738;20.612;2022-07-29T12:18:56;7.05;;;5.40;;
71312;SDS011;59104;44.738;20.612;2022-07-29T12:21:27;7.03;;;4.68;;
71312;SDS011;59104;44.738;20.612;2022-07-29T12:23:54;6.63;;;4.90;;
71312;SDS011;59104;44.738;20.612;2022-07-29T12:26:20;7.70;;;4.68;;
71312;SDS011;59104;44.738;20.612;2022-07-29T12:28:46;8.18;;;5.50;;
71312;SDS011;59104;44.738;20.612;2022-07-29T12:31:15;7.88;;;6.40;;
71312;SDS011;59104;44.738;20.612;2022-07-29T12:33:41;7.60;;;6.45;;
71312;SDS011;59104;44.738;20.612;2022-07-29T12:36:07;7.78;;;6.13;;
71312;SDS011;59104;44.738;20.612;2022-07-29T12:38:33;9.10;;;6.65;;
71312;SDS011;59104;44.738;20.612;2022-07-29T12:41:00;11.68;;;7.47;;
71312;SDS011;59104;44.738;20.612;2022-07-29T12:43:26;8.25;;;6.60;;
71312;SDS011;59104;44.738;20.612;2022-07-29T12:45:52;6.47;;;5.85;;
71312;SDS011;59104;44.738;20.612;2022-07-29T12:48:36;8.68;;;6.35;;
71312;SDS011;59104;44.738;20.612;2022-07-29T12:51:04;8.05;;;6.60;;
71312;SDS011;59104;44.738;20.612;2022-07-29T12:53:31;8.95;;;6.40;;
71312;SDS011;59104;44.738;20.612;2022-07-29T12:55:57;7.70;;;6.90;;
71312;SDS011;59104;44.738;20.612;2022-07-29T12:58:30;7.15;;;6.43;;
71312;SDS011;59104;44.738;20.612;2022-07-29T13:03:41;6.95;;;6.25;;
71312;SDS011;59104;44.738;20.612;2022-07-29T13:09:19;7.35;;;6.43;;
71312;SDS011;59104;44.738;20.612;2022-07-29T13:11:50;8.93;;;6.75;;
71312;SDS011;59104;44.738;20.612;2022-07-29T13:14:30;6.57;;;5.88;;
71312;SDS011;59104;44.738;20.612;2022-07-29T13:17:11;7.30;;;6.60;;
71312;SDS011;59104;44.738;20.612;2022-07-29T13:19:41;8.63;;;7.00;;
71312;SDS011;59104;44.738;20.612;2022-07-29T13:22:22;7.70;;;5.97;;
71312;SDS011;59104;44.738;20.612;2022-07-29T13:24:55;6.75;;;6.03;;
71312;SDS011;59104;44.738;20.612;2022-07-29T13:27:26;7.88;;;6.18;;
71312;SDS011;59104;44.738;20.612;2022-07-29T13:29:55;6.15;;;5.55;;
71312;SDS011;59104;44.738;20.612;2022-07-29T13:32:23;4.88;;;4.25;;
71312;SDS011;59104;44.738;20.612;2022-07-29T13:34:50;5.38;;;4.60;;
71312;SDS011;59104;44.738;20.612;2022-07-29T13:37:17;6.28;;;5.20;;
71312;SDS011;59104;44.738;20.612;2022-07-29T13:39:43;6.82;;;5.30;;
71312;SDS011;59104;44.738;20.612;2022-07-29T13:42:09;6.10;;;5.50;;
71312;SDS011;59104;44.738;20.612;2022-07-29T13:44:35;6.00;;;5.07;;
71312;SDS011;59104;44.738;20.612;2022-07-29T13:47:00;5.15;;;4.65;;
71312;SDS011;59104;44.738;20.612;2022-07-29T13:49:26;6.38;;;5.10;;
71312;SDS011;59104;44.738;20.612;2022-07-29T13:51:52;5.75;;;4.57;;
71312;SDS011;59104;44.738;20.612;2022-07-29T13:54:18;4.57;;;4.18;;
71312;SDS011;59104;44.738;20.612;2022-07-29T13:56:44;6.88;;;4.88;;
71312;SDS011;59104;44.738;20.612;2022-07-29T13:59:10;6.70;;;4.55;;
71312;SDS011;59104;44.738;20.612;2022-07-29T14:01:36;5.35;;;4.50;;
71312;SDS011;59104;44.738;20.612;2022-07-29T14:04:02;4.43;;;4.03;;
71312;SDS011;59104;44.738;20.612;2022-07-29T14:06:28;5.65;;;4.22;;
71312;SDS011;59104;44.738;20.612;2022-07-29T14:08:54;5.90;;;5.30;;
71312;SDS011;59104;44.738;20.612;2022-07-29T14:11:20;5.68;;;4.32;;
71312;SDS011;59104;44.738;20.612;2022-07-29T14:13:45;7.05;;;4.60;;
71312;SDS011;59104;44.738;20.612;2022-07-29T14:16:11;5.72;;;5.13;;
71312;SDS011;59104;44.738;20.612;2022-07-29T14:18:37;5.10;;;4.57;;
71312;SDS011;59104;44.738;20.612;2022-07-29T14:21:02;7.38;;;5.20;;
71312;SDS011;59104;44.738;20.612;2022-07-29T14:23:28;6.35;;;4.68;;
71312;SDS011;59104;44.738;20.612;2022-07-29T14:25:54;6.10;;;4.35;;
71312;SDS011;59104;44.738;20.612;2022-07-29T14:28:20;6.60;;;4.38;;
71312;SDS011;59104;44.738;20.612;2022-07-29T14:30:45;4.53;;;4.13;;
71312;SDS011;59104;44.738;20.612;2022-07-29T14:33:11;7.82;;;4.70;;
71312;SDS011;59104;44.738;20.612;2022-07-29T14:35:37;5.78;;;4.53;;
71312;SDS011;59104;44.738;20.612;2022-07-29T14:38:02;4.90;;;4.28;;
71312;SDS011;59104;44.738;20.612;2022-07-29T14:40:28;4.70;;;4.20;;
71312;SDS011;59104;44.738;20.612;2022-07-29T14:42:54;4.57;;;3.90;;
71312;SDS011;59104;44.738;20.612;2022-07-29T14:45:19;4.82;;;4.40;;
71312;SDS011;59104;44.738;20.612;2022-07-29T14:47:45;5.10;;;4.40;;
71312;SDS011;59104;44.738;20.612;2022-07-29T14:50:11;4.75;;;4.35;;
71312;SDS011;59104;44.738;20.612;2022-07-29T14:52:37;4.20;;;3.80;;
71312;SDS011;59104;44.738;20.612;2022-07-29T14:55:03;5.60;;;4.85;;
71312;SDS011;59104;44.738;20.612;2022-07-29T14:57:29;4.60;;;4.20;;
71312;SDS011;59104;44.738;20.612;2022-07-29T14:59:55;6.07;;;4.70;;
71312;SDS011;59104;44.738;20.612;2022-07-29T15:02:20;4.72;;;4.32;;
71312;SDS011;59104;44.738;20.612;2022-07-29T15:04:46;4.72;;;4.20;;
71312;SDS011;59104;44.738;20.612;2022-07-29T15:07:13;4.43;;;4.03;;
71312;SDS011;59104;44.738;20.612;2022-07-29T15:09:39;4.38;;;4.03;;
71312;SDS011;59104;44.738;20.612;2022-07-29T15:12:05;5.25;;;3.97;;
71312;SDS011;59104;44.738;20.612;2022-07-29T15:14:31;4.30;;;3.58;;
71312;SDS011;59104;44.738;20.612;2022-07-29T15:16:57;4.80;;;4.30;;
71312;SDS011;59104;44.738;20.612;2022-07-29T15:19:23;4.00;;;3.60;;
71312;SDS011;59104;44.738;20.612;2022-07-29T15:21:49;4.82;;;4.32;;
71312;SDS011;59104;44.738;20.612;2022-07-29T15:24:18;4.82;;;4.32;;
71312;SDS011;59104;44.738;20.612;2022-07-29T15:26:45;4.75;;;3.75;;
71312;SDS011;59104;44.738;20.612;2022-07-29T15:29:11;4.47;;;3.95;;
71312;SDS011;59104;44.738;20.612;2022-07-29T15:31:37;4.95;;;4.30;;